Contact Us:
Email: info@sawbill.com
Phone: (218)663-7150
Fax: (218)663-7980
Mail: 4620 Sawbill Trail
Box 2129
Tofte, MN 55615


Powered by
Movable Type 3.15
 
Sawbill Weather History Archives: February 2008
Current Sawbill Weather History | « January 2008 | March 2008 »


Date

High
Temperature

Low
Temperature

Barometric
Pressure

Relative
Humidity 7AM

9 AM
Temperature

Moisture

Snow

2/29/08 24 13 29.55 84% 18 .04" .5"
2/28/08 22 5 29.65 85% 13 .12" 1.5"
2/27/08 18 -15 29.94 68% 5 0
2/26/08 18 -7 29.97 53% 6 Trace Trace
2/25/08 22 9 30.00 61% 13 Trace Trace
2/24/08 36 11 29.88 55% 14 0
2/23/08 29 -1 29.80 81% 20 0
2/22/08 20 -6 29.88 58% -3 0
2/21/08 14 -7 29.88 45% -6 0
2/20/08 6 -16 30.00 66% -5 0
2/19/08 5 -18 30.21 66% -16 0
2/18/08 14 -12 29.71 66% -10 0
2/17/08 18 0 29.56 74% 3 .05" .5"
2/16/08 26 0 29.47 87% 24 Trace Trace
2/15/08 3 -15 29.80 58% 2 0
2/14/08 5 -18 30.12 58% -15 0
2/13/08 8 -6 29.83 58% -6 .09" 1"
2/12/08 14 0 29.77 58% 2 Trace Trace
2/11/08 7 -23 30.10 60% 0 0
2/10/08 -7 -23 30.24 60% -23 0
2/9/08 22 -21 29.97 60% -18 .07" 1"
2/8/08 23 12 29.56 81% 17 .1" 1"
2/7/08 24 -4 29.68 85% 12 0
2/6/08 18 -10 29.71 76% 18 Trace Trace
2/5/08 21 -13 29.88 60% -10 0
2/4/08 28 21 30.00 59% 21 Trace Trace
2/3/08 26 18 29.91 91% 22 0
2/2/08 28 12 29.98 89% 18 Trace Trace
2/1/08 22 -4 30.08 75% 12 Trace Trace
 


Home I Trip Planning I Rentals and Outfitting I Reservations I Campgrounds I Sawbill Store I Sawbill News I Contact

© 1997 - 2017, Sawbill Canoe Outfitters, Inc. I Privacy Policy